sensor_id;sensor_type;location;lat;lon;timestamp;P1;durP1;ratioP1;P2;durP2;ratioP2
10450;SDS011;5273;51.290;6.918;2022-11-25T00:01:46;6.57;;;1.87;;
10450;SDS011;5273;51.290;6.918;2022-11-25T00:04:13;6.03;;;2.23;;
10450;SDS011;5273;51.290;6.918;2022-11-25T00:06:41;5.17;;;2.53;;
10450;SDS011;5273;51.290;6.918;2022-11-25T00:09:09;9.47;;;2.10;;
10450;SDS011;5273;51.290;6.918;2022-11-25T00:11:39;4.63;;;1.90;;
10450;SDS011;5273;51.290;6.918;2022-11-25T00:14:07;9.63;;;2.43;;
10450;SDS011;5273;51.290;6.918;2022-11-25T00:16:37;9.47;;;2.00;;
10450;SDS011;5273;51.290;6.918;2022-11-25T00:19:03;6.43;;;2.00;;
10450;SDS011;5273;51.290;6.918;2022-11-25T00:21:31;5.37;;;1.80;;
10450;SDS011;5273;51.290;6.918;2022-11-25T00:24:00;5.83;;;1.93;;
10450;SDS011;5273;51.290;6.918;2022-11-25T00:26:29;14.93;;;2.23;;
10450;SDS011;5273;51.290;6.918;2022-11-25T00:29:02;7.80;;;2.07;;
10450;SDS011;5273;51.290;6.918;2022-11-25T00:31:31;10.60;;;2.77;;
10450;SDS011;5273;51.290;6.918;2022-11-25T00:33:59;10.57;;;2.20;;
10450;SDS011;5273;51.290;6.918;2022-11-25T00:36:27;5.03;;;1.93;;
10450;SDS011;5273;51.290;6.918;2022-11-25T00:38:56;7.57;;;1.93;;
10450;SDS011;5273;51.290;6.918;2022-11-25T00:41:25;8.80;;;2.60;;
10450;SDS011;5273;51.290;6.918;2022-11-25T00:44:12;11.73;;;2.37;;
10450;SDS011;5273;51.290;6.918;2022-11-25T00:46:57;7.83;;;2.00;;
10450;SDS011;5273;51.290;6.918;2022-11-25T00:49:25;11.80;;;2.00;;
10450;SDS011;5273;51.290;6.918;2022-11-25T00:51:52;7.70;;;2.00;;
10450;SDS011;5273;51.290;6.918;2022-11-25T00:54:18;6.63;;;1.80;;
10450;SDS011;5273;51.290;6.918;2022-11-25T00:56:45;5.83;;;2.00;;
10450;SDS011;5273;51.290;6.918;2022-11-25T00:59:13;6.37;;;2.60;;
10450;SDS011;5273;51.290;6.918;2022-11-25T01:01:40;4.47;;;1.83;;
10450;SDS011;5273;51.290;6.918;2022-11-25T01:04:07;6.67;;;2.23;;
10450;SDS011;5273;51.290;6.918;2022-11-25T01:06:35;8.97;;;2.13;;
10450;SDS011;5273;51.290;6.918;2022-11-25T01:09:02;10.20;;;2.30;;
10450;SDS011;5273;51.290;6.918;2022-11-25T01:11:30;6.77;;;2.23;;
10450;SDS011;5273;51.290;6.918;2022-11-25T01:13:56;9.23;;;2.17;;
10450;SDS011;5273;51.290;6.918;2022-11-25T01:16:25;8.20;;;2.37;;
10450;SDS011;5273;51.290;6.918;2022-11-25T01:18:52;10.33;;;2.37;;
10450;SDS011;5273;51.290;6.918;2022-11-25T01:21:19;7.10;;;2.00;;
10450;SDS011;5273;51.290;6.918;2022-11-25T01:23:48;5.73;;;1.80;;
10450;SDS011;5273;51.290;6.918;2022-11-25T01:26:16;7.87;;;1.80;;
10450;SDS011;5273;51.290;6.918;2022-11-25T01:28:43;11.47;;;2.70;;
10450;SDS011;5273;51.290;6.918;2022-11-25T01:31:11;5.10;;;2.13;;
10450;SDS011;5273;51.290;6.918;2022-11-25T01:33:41;7.70;;;2.17;;
10450;SDS011;5273;51.290;6.918;2022-11-25T01:36:09;7.07;;;2.57;;
10450;SDS011;5273;51.290;6.918;2022-11-25T01:38:37;6.20;;;2.17;;
10450;SDS011;5273;51.290;6.918;2022-11-25T01:41:05;3.53;;;1.83;;
10450;SDS011;5273;51.290;6.918;2022-11-25T01:43:34;6.70;;;2.10;;
10450;SDS011;5273;51.290;6.918;2022-11-25T01:46:03;6.17;;;1.80;;
10450;SDS011;5273;51.290;6.918;2022-11-25T01:48:36;7.00;;;2.30;;
10450;SDS011;5273;51.290;6.918;2022-11-25T01:51:10;5.83;;;2.53;;
10450;SDS011;5273;51.290;6.918;2022-11-25T01:53:46;11.80;;;2.03;;
10450;SDS011;5273;51.290;6.918;2022-11-25T01:56:14;6.83;;;2.07;;
10450;SDS011;5273;51.290;6.918;2022-11-25T01:58:41;4.33;;;2.33;;
10450;SDS011;5273;51.290;6.918;2022-11-25T02:01:11;6.10;;;1.83;;
10450;SDS011;5273;51.290;6.918;2022-11-25T02:03:39;6.33;;;2.00;;
10450;SDS011;5273;51.290;6.918;2022-11-25T02:06:11;5.27;;;2.23;;
10450;SDS011;5273;51.290;6.918;2022-11-25T02:08:44;12.03;;;2.60;;
10450;SDS011;5273;51.290;6.918;2022-11-25T02:11:14;7.10;;;2.30;;
10450;SDS011;5273;51.290;6.918;2022-11-25T02:13:42;7.93;;;2.10;;
10450;SDS011;5273;51.290;6.918;2022-11-25T02:16:10;5.70;;;2.27;;
10450;SDS011;5273;51.290;6.918;2022-11-25T02:18:37;5.87;;;2.37;;
10450;SDS011;5273;51.290;6.918;2022-11-25T02:21:04;3.40;;;1.73;;
10450;SDS011;5273;51.290;6.918;2022-11-25T02:23:34;10.67;;;2.87;;
10450;SDS011;5273;51.290;6.918;2022-11-25T02:26:06;7.13;;;2.23;;
10450;SDS011;5273;51.290;6.918;2022-11-25T02:28:34;12.63;;;2.30;;
10450;SDS011;5273;51.290;6.918;2022-11-25T02:31:01;5.23;;;2.00;;
10450;SDS011;5273;51.290;6.918;2022-11-25T02:33:28;9.40;;;2.30;;
10450;SDS011;5273;51.290;6.918;2022-11-25T02:35:55;4.60;;;2.00;;
10450;SDS011;5273;51.290;6.918;2022-11-25T02:38:24;9.70;;;2.47;;
10450;SDS011;5273;51.290;6.918;2022-11-25T02:40:56;8.53;;;2.07;;
10450;SDS011;5273;51.290;6.918;2022-11-25T02:43:29;6.77;;;2.80;;
10450;SDS011;5273;51.290;6.918;2022-11-25T02:45:58;4.97;;;1.47;;
10450;SDS011;5273;51.290;6.918;2022-11-25T02:48:27;3.57;;;2.00;;
10450;SDS011;5273;51.290;6.918;2022-11-25T02:50:55;8.57;;;2.17;;
10450;SDS011;5273;51.290;6.918;2022-11-25T02:53:22;8.60;;;2.30;;
10450;SDS011;5273;51.290;6.918;2022-11-25T02:55:49;4.33;;;1.90;;
10450;SDS011;5273;51.290;6.918;2022-11-25T02:58:16;6.97;;;2.07;;
10450;SDS011;5273;51.290;6.918;2022-11-25T03:00:45;6.47;;;2.23;;
10450;SDS011;5273;51.290;6.918;2022-11-25T03:03:12;6.80;;;2.67;;
10450;SDS011;5273;51.290;6.918;2022-11-25T03:05:39;7.07;;;2.30;;
10450;SDS011;5273;51.290;6.918;2022-11-25T03:08:06;10.20;;;2.47;;
10450;SDS011;5273;51.290;6.918;2022-11-25T03:10:34;8.83;;;2.53;;
10450;SDS011;5273;51.290;6.918;2022-11-25T03:13:01;7.53;;;1.90;;
10450;SDS011;5273;51.290;6.918;2022-11-25T03:15:28;5.73;;;2.00;;
10450;SDS011;5273;51.290;6.918;2022-11-25T03:17:56;7.67;;;2.77;;
10450;SDS011;5273;51.290;6.918;2022-11-25T03:20:23;5.90;;;2.00;;
10450;SDS011;5273;51.290;6.918;2022-11-25T03:22:49;11.70;;;2.70;;
10450;SDS011;5273;51.290;6.918;2022-11-25T03:25:16;7.30;;;2.40;;
10450;SDS011;5273;51.290;6.918;2022-11-25T03:27:44;10.63;;;2.20;;
10450;SDS011;5273;51.290;6.918;2022-11-25T03:30:11;8.97;;;2.53;;
10450;SDS011;5273;51.290;6.918;2022-11-25T03:32:40;7.47;;;1.63;;
10450;SDS011;5273;51.290;6.918;2022-11-25T03:35:08;11.23;;;3.10;;
10450;SDS011;5273;51.290;6.918;2022-11-25T03:37:36;12.63;;;2.93;;
10450;SDS011;5273;51.290;6.918;2022-11-25T03:40:05;6.07;;;2.10;;
10450;SDS011;5273;51.290;6.918;2022-11-25T03:42:33;5.97;;;2.07;;
10450;SDS011;5273;51.290;6.918;2022-11-25T03:45:00;6.27;;;1.83;;
10450;SDS011;5273;51.290;6.918;2022-11-25T03:47:27;11.30;;;2.83;;
10450;SDS011;5273;51.290;6.918;2022-11-25T03:49:54;5.73;;;2.20;;
10450;SDS011;5273;51.290;6.918;2022-11-25T03:52:22;4.53;;;2.00;;
10450;SDS011;5273;51.290;6.918;2022-11-25T03:54:49;5.80;;;2.00;;
10450;SDS011;5273;51.290;6.918;2022-11-25T03:57:16;4.03;;;2.60;;
10450;SDS011;5273;51.290;6.918;2022-11-25T03:59:43;4.53;;;1.93;;
10450;SDS011;5273;51.290;6.918;2022-11-25T04:02:10;14.27;;;2.50;;
10450;SDS011;5273;51.290;6.918;2022-11-25T04:04:38;10.07;;;2.40;;
10450;SDS011;5273;51.290;6.918;2022-11-25T04:07:05;5.73;;;2.57;;
10450;SDS011;5273;51.290;6.918;2022-11-25T04:09:33;7.30;;;2.30;;
10450;SDS011;5273;51.290;6.918;2022-11-25T04:12:00;6.03;;;2.23;;
10450;SDS011;5273;51.290;6.918;2022-11-25T04:14:44;5.37;;;2.40;;
10450;SDS011;5273;51.290;6.918;2022-11-25T04:17:11;9.43;;;2.03;;
10450;SDS011;5273;51.290;6.918;2022-11-25T04:19:37;8.43;;;3.20;;
10450;SDS011;5273;51.290;6.918;2022-11-25T04:22:04;8.53;;;2.73;;
10450;SDS011;5273;51.290;6.918;2022-11-25T04:24:31;12.03;;;2.30;;
10450;SDS011;5273;51.290;6.918;2022-11-25T04:26:59;12.83;;;2.43;;
10450;SDS011;5273;51.290;6.918;2022-11-25T04:29:26;8.50;;;2.30;;
10450;SDS011;5273;51.290;6.918;2022-11-25T04:31:52;5.97;;;2.20;;
10450;SDS011;5273;51.290;6.918;2022-11-25T04:34:19;7.80;;;2.23;;
10450;SDS011;5273;51.290;6.918;2022-11-25T04:36:46;14.17;;;3.13;;
10450;SDS011;5273;51.290;6.918;2022-11-25T04:39:13;11.80;;;3.17;;
10450;SDS011;5273;51.290;6.918;2022-11-25T04:41:39;15.47;;;2.60;;
10450;SDS011;5273;51.290;6.918;2022-11-25T04:44:08;6.67;;;2.93;;
10450;SDS011;5273;51.290;6.918;2022-11-25T04:46:36;7.13;;;2.87;;
10450;SDS011;5273;51.290;6.918;2022-11-25T04:49:05;9.63;;;2.60;;
10450;SDS011;5273;51.290;6.918;2022-11-25T04:51:32;7.27;;;2.80;;
10450;SDS011;5273;51.290;6.918;2022-11-25T04:53:59;9.03;;;2.23;;
10450;SDS011;5273;51.290;6.918;2022-11-25T04:56:26;7.70;;;2.80;;
10450;SDS011;5273;51.290;6.918;2022-11-25T04:58:53;16.07;;;3.40;;
10450;SDS011;5273;51.290;6.918;2022-11-25T05:01:38;8.23;;;2.73;;
10450;SDS011;5273;51.290;6.918;2022-11-25T05:04:05;11.53;;;2.67;;
10450;SDS011;5273;51.290;6.918;2022-11-25T05:06:32;5.53;;;2.43;;
10450;SDS011;5273;51.290;6.918;2022-11-25T05:08:58;9.77;;;2.80;;
10450;SDS011;5273;51.290;6.918;2022-11-25T05:11:25;5.47;;;2.40;;
10450;SDS011;5273;51.290;6.918;2022-11-25T05:13:52;7.07;;;2.80;;
10450;SDS011;5273;51.290;6.918;2022-11-25T05:16:19;9.03;;;2.77;;
10450;SDS011;5273;51.290;6.918;2022-11-25T05:18:47;7.93;;;2.63;;
10450;SDS011;5273;51.290;6.918;2022-11-25T05:21:14;10.27;;;2.70;;
10450;SDS011;5273;51.290;6.918;2022-11-25T05:23:40;6.97;;;2.53;;
10450;SDS011;5273;51.290;6.918;2022-11-25T05:26:07;8.70;;;3.80;;
10450;SDS011;5273;51.290;6.918;2022-11-25T05:28:34;6.93;;;3.07;;
10450;SDS011;5273;51.290;6.918;2022-11-25T05:31:01;13.20;;;2.97;;
10450;SDS011;5273;51.290;6.918;2022-11-25T05:33:27;7.73;;;2.43;;
10450;SDS011;5273;51.290;6.918;2022-11-25T05:35:56;4.87;;;3.00;;
10450;SDS011;5273;51.290;6.918;2022-11-25T05:38:24;9.90;;;3.90;;
10450;SDS011;5273;51.290;6.918;2022-11-25T05:40:52;11.23;;;3.13;;
10450;SDS011;5273;51.290;6.918;2022-11-25T05:43:19;9.77;;;3.20;;
10450;SDS011;5273;51.290;6.918;2022-11-25T05:45:46;9.60;;;3.37;;
10450;SDS011;5273;51.290;6.918;2022-11-25T05:48:13;9.47;;;3.17;;
10450;SDS011;5273;51.290;6.918;2022-11-25T05:50:39;12.40;;;3.43;;
10450;SDS011;5273;51.290;6.918;2022-11-25T05:53:07;7.47;;;3.43;;
10450;SDS011;5273;51.290;6.918;2022-11-25T05:55:35;9.93;;;2.87;;
10450;SDS011;5273;51.290;6.918;2022-11-25T05:58:02;9.80;;;3.60;;
10450;SDS011;5273;51.290;6.918;2022-11-25T06:00:30;11.67;;;3.50;;
10450;SDS011;5273;51.290;6.918;2022-11-25T06:02:57;11.13;;;3.77;;
10450;SDS011;5273;51.290;6.918;2022-11-25T06:05:24;16.03;;;3.63;;
10450;SDS011;5273;51.290;6.918;2022-11-25T06:07:51;8.43;;;3.67;;
10450;SDS011;5273;51.290;6.918;2022-11-25T06:10:19;12.20;;;3.63;;
10450;SDS011;5273;51.290;6.918;2022-11-25T06:12:46;12.93;;;4.23;;
10450;SDS011;5273;51.290;6.918;2022-11-25T06:15:13;9.97;;;3.37;;
10450;SDS011;5273;51.290;6.918;2022-11-25T06:17:40;13.17;;;4.00;;
10450;SDS011;5273;51.290;6.918;2022-11-25T06:20:07;9.80;;;3.60;;
10450;SDS011;5273;51.290;6.918;2022-11-25T06:22:34;13.50;;;3.70;;
10450;SDS011;5273;51.290;6.918;2022-11-25T06:25:01;10.33;;;3.83;;
10450;SDS011;5273;51.290;6.918;2022-11-25T06:27:29;22.70;;;4.47;;
10450;SDS011;5273;51.290;6.918;2022-11-25T06:29:56;11.27;;;4.03;;
10450;SDS011;5273;51.290;6.918;2022-11-25T06:32:23;15.10;;;4.43;;
10450;SDS011;5273;51.290;6.918;2022-11-25T06:34:50;14.17;;;4.13;;
10450;SDS011;5273;51.290;6.918;2022-11-25T06:37:17;14.13;;;4.23;;
10450;SDS011;5273;51.290;6.918;2022-11-25T06:39:44;10.20;;;3.87;;
10450;SDS011;5273;51.290;6.918;2022-11-25T06:42:11;7.53;;;3.43;;
10450;SDS011;5273;51.290;6.918;2022-11-25T06:44:39;11.07;;;4.30;;
10450;SDS011;5273;51.290;6.918;2022-11-25T06:47:06;13.10;;;3.90;;
10450;SDS011;5273;51.290;6.918;2022-11-25T06:49:33;17.27;;;4.30;;
10450;SDS011;5273;51.290;6.918;2022-11-25T06:52:00;13.43;;;4.30;;
10450;SDS011;5273;51.290;6.918;2022-11-25T06:54:27;14.83;;;3.63;;
10450;SDS011;5273;51.290;6.918;2022-11-25T06:56:54;11.13;;;4.20;;
10450;SDS011;5273;51.290;6.918;2022-11-25T06:59:21;14.27;;;4.17;;
10450;SDS011;5273;51.290;6.918;2022-11-25T07:01:49;16.90;;;4.43;;
10450;SDS011;5273;51.290;6.918;2022-11-25T07:04:16;13.17;;;3.77;;
10450;SDS011;5273;51.290;6.918;2022-11-25T07:06:42;8.87;;;3.63;;
10450;SDS011;5273;51.290;6.918;2022-11-25T07:09:09;12.97;;;4.13;;
10450;SDS011;5273;51.290;6.918;2022-11-25T07:11:37;10.97;;;3.63;;
10450;SDS011;5273;51.290;6.918;2022-11-25T07:14:06;9.73;;;3.60;;
10450;SDS011;5273;51.290;6.918;2022-11-25T07:16:34;11.43;;;4.37;;
10450;SDS011;5273;51.290;6.918;2022-11-25T07:19:04;15.90;;;4.03;;
10450;SDS011;5273;51.290;6.918;2022-11-25T07:21:32;10.53;;;4.00;;
10450;SDS011;5273;51.290;6.918;2022-11-25T07:24:00;14.20;;;3.70;;
10450;SDS011;5273;51.290;6.918;2022-11-25T07:26:30;13.17;;;3.70;;
10450;SDS011;5273;51.290;6.918;2022-11-25T07:28:59;11.90;;;3.40;;
10450;SDS011;5273;51.290;6.918;2022-11-25T07:31:27;14.13;;;4.03;;
10450;SDS011;5273;51.290;6.918;2022-11-25T07:33:56;12.80;;;4.33;;
10450;SDS011;5273;51.290;6.918;2022-11-25T07:36:25;11.93;;;3.70;;
10450;SDS011;5273;51.290;6.918;2022-11-25T07:38:53;16.63;;;4.13;;
10450;SDS011;5273;51.290;6.918;2022-11-25T07:41:20;10.40;;;4.00;;
10450;SDS011;5273;51.290;6.918;2022-11-25T07:43:49;15.67;;;4.00;;
10450;SDS011;5273;51.290;6.918;2022-11-25T07:46:18;9.00;;;4.27;;
10450;SDS011;5273;51.290;6.918;2022-11-25T07:48:46;12.70;;;4.07;;
10450;SDS011;5273;51.290;6.918;2022-11-25T07:51:14;8.43;;;3.77;;
10450;SDS011;5273;51.290;6.918;2022-11-25T07:53:44;12.20;;;4.20;;
10450;SDS011;5273;51.290;6.918;2022-11-25T07:56:11;10.97;;;4.27;;
10450;SDS011;5273;51.290;6.918;2022-11-25T07:58:39;12.90;;;3.70;;
10450;SDS011;5273;51.290;6.918;2022-11-25T08:01:06;18.23;;;4.20;;
10450;SDS011;5273;51.290;6.918;2022-11-25T08:03:35;11.43;;;3.93;;
10450;SDS011;5273;51.290;6.918;2022-11-25T08:06:05;14.50;;;3.43;;
10450;SDS011;5273;51.290;6.918;2022-11-25T08:08:34;13.20;;;4.23;;
10450;SDS011;5273;51.290;6.918;2022-11-25T08:11:05;10.67;;;4.13;;
10450;SDS011;5273;51.290;6.918;2022-11-25T08:13:33;9.30;;;3.77;;
10450;SDS011;5273;51.290;6.918;2022-11-25T08:16:00;12.63;;;3.80;;
10450;SDS011;5273;51.290;6.918;2022-11-25T08:18:27;5.77;;;3.47;;
10450;SDS011;5273;51.290;6.918;2022-11-25T08:20:57;8.43;;;3.90;;
10450;SDS011;5273;51.290;6.918;2022-11-25T08:23:25;9.83;;;3.23;;
10450;SDS011;5273;51.290;6.918;2022-11-25T08:25:52;12.07;;;3.17;;
10450;SDS011;5273;51.290;6.918;2022-11-25T08:28:20;8.03;;;3.20;;
10450;SDS011;5273;51.290;6.918;2022-11-25T08:30:47;11.33;;;3.53;;
10450;SDS011;5273;51.290;6.918;2022-11-25T08:33:14;10.73;;;3.30;;
10450;SDS011;5273;51.290;6.918;2022-11-25T08:35:41;7.17;;;3.17;;
10450;SDS011;5273;51.290;6.918;2022-11-25T08:38:08;7.47;;;3.37;;
10450;SDS011;5273;51.290;6.918;2022-11-25T08:40:37;7.60;;;3.00;;
10450;SDS011;5273;51.290;6.918;2022-11-25T08:43:03;10.20;;;3.33;;
10450;SDS011;5273;51.290;6.918;2022-11-25T08:45:31;5.67;;;3.53;;
10450;SDS011;5273;51.290;6.918;2022-11-25T08:47:59;12.33;;;3.77;;
10450;SDS011;5273;51.290;6.918;2022-11-25T08:50:25;8.70;;;3.67;;
10450;SDS011;5273;51.290;6.918;2022-11-25T08:52:52;5.93;;;2.93;;
10450;SDS011;5273;51.290;6.918;2022-11-25T08:55:19;5.60;;;2.80;;
10450;SDS011;5273;51.290;6.918;2022-11-25T08:57:46;6.97;;;3.07;;
10450;SDS011;5273;51.290;6.918;2022-11-25T09:00:13;8.13;;;2.80;;
10450;SDS011;5273;51.290;6.918;2022-11-25T09:02:42;6.20;;;2.78;;
10450;SDS011;5273;51.290;6.918;2022-11-25T09:05:10;8.52;;;2.72;;
10450;SDS011;5273;51.290;6.918;2022-11-25T09:07:38;6.13;;;2.60;;
10450;SDS011;5273;51.290;6.918;2022-11-25T09:10:07;7.05;;;2.53;;
10450;SDS011;5273;51.290;6.918;2022-11-25T09:12:39;4.68;;;2.53;;
10450;SDS011;5273;51.290;6.918;2022-11-25T09:15:06;8.05;;;2.53;;
10450;SDS011;5273;51.290;6.918;2022-11-25T09:17:34;4.70;;;2.60;;
10450;SDS011;5273;51.290;6.918;2022-11-25T09:20:02;5.95;;;2.72;;
10450;SDS011;5273;51.290;6.918;2022-11-25T09:22:30;5.68;;;2.40;;
10450;SDS011;5273;51.290;6.918;2022-11-25T09:24:57;5.45;;;2.60;;
10450;SDS011;5273;51.290;6.918;2022-11-25T09:27:23;6.15;;;2.90;;
10450;SDS011;5273;51.290;6.918;2022-11-25T09:29:50;4.65;;;2.58;;
10450;SDS011;5273;51.290;6.918;2022-11-25T09:32:17;4.20;;;2.33;;
10450;SDS011;5273;51.290;6.918;2022-11-25T09:34:44;5.38;;;2.45;;
10450;SDS011;5273;51.290;6.918;2022-11-25T09:37:12;4.88;;;2.58;;
10450;SDS011;5273;51.290;6.918;2022-11-25T09:39:39;5.38;;;2.25;;
10450;SDS011;5273;51.290;6.918;2022-11-25T09:42:10;5.03;;;2.70;;
10450;SDS011;5273;51.290;6.918;2022-11-25T09:45:11;5.85;;;2.30;;
10450;SDS011;5273;51.290;6.918;2022-11-25T09:48:04;3.90;;;2.10;;
10450;SDS011;5273;51.290;6.918;2022-11-25T09:50:45;6.38;;;2.70;;
10450;SDS011;5273;51.290;6.918;2022-11-25T09:53:23;4.35;;;2.30;;
10450;SDS011;5273;51.290;6.918;2022-11-25T09:56:01;6.32;;;2.55;;
10450;SDS011;5273;51.290;6.918;2022-11-25T09:58:30;5.40;;;2.60;;
10450;SDS011;5273;51.290;6.918;2022-11-25T10:01:00;5.55;;;2.70;;
10450;SDS011;5273;51.290;6.918;2022-11-25T10:03:31;7.70;;;2.88;;
10450;SDS011;5273;51.290;6.918;2022-11-25T10:06:05;7.13;;;2.88;;
10450;SDS011;5273;51.290;6.918;2022-11-25T10:08:41;6.78;;;2.38;;
10450;SDS011;5273;51.290;6.918;2022-11-25T10:11:13;5.68;;;2.40;;
10450;SDS011;5273;51.290;6.918;2022-11-25T10:13:47;5.78;;;2.33;;
10450;SDS011;5273;51.290;6.918;2022-11-25T10:16:23;9.18;;;2.80;;
10450;SDS011;5273;51.290;6.918;2022-11-25T10:18:57;6.38;;;3.05;;
10450;SDS011;5273;51.290;6.918;2022-11-25T10:21:26;7.38;;;3.20;;
10450;SDS011;5273;51.290;6.918;2022-11-25T10:23:54;8.90;;;3.17;;
10450;SDS011;5273;51.290;6.918;2022-11-25T10:26:22;6.85;;;2.92;;
10450;SDS011;5273;51.290;6.918;2022-11-25T10:28:56;6.10;;;2.65;;
10450;SDS011;5273;51.290;6.918;2022-11-25T10:31:42;6.93;;;2.50;;
10450;SDS011;5273;51.290;6.918;2022-11-25T10:34:10;5.15;;;2.38;;
10450;SDS011;5273;51.290;6.918;2022-11-25T10:36:45;6.22;;;2.45;;
10450;SDS011;5273;51.290;6.918;2022-11-25T10:39:18;6.45;;;2.33;;
10450;SDS011;5273;51.290;6.918;2022-11-25T10:41:49;6.13;;;2.55;;
10450;SDS011;5273;51.290;6.918;2022-11-25T10:44:22;6.82;;;2.65;;
10450;SDS011;5273;51.290;6.918;2022-11-25T10:46:53;6.90;;;2.45;;
10450;SDS011;5273;51.290;6.918;2022-11-25T10:49:35;5.82;;;2.47;;
10450;SDS011;5273;51.290;6.918;2022-11-25T10:52:09;5.32;;;2.50;;
10450;SDS011;5273;51.290;6.918;2022-11-25T10:54:39;3.85;;;2.03;;
10450;SDS011;5273;51.290;6.918;2022-11-25T10:57:14;4.55;;;2.42;;
10450;SDS011;5273;51.290;6.918;2022-11-25T10:59:44;6.28;;;2.58;;
10450;SDS011;5273;51.290;6.918;2022-11-25T11:02:22;7.03;;;2.28;;
10450;SDS011;5273;51.290;6.918;2022-11-25T11:04:52;8.15;;;2.50;;
10450;SDS011;5273;51.290;6.918;2022-11-25T11:07:22;5.07;;;2.20;;
10450;SDS011;5273;51.290;6.918;2022-11-25T11:09:51;5.57;;;2.25;;
10450;SDS011;5273;51.290;6.918;2022-11-25T11:12:38;7.10;;;2.50;;
10450;SDS011;5273;51.290;6.918;2022-11-25T11:15:18;6.60;;;2.50;;
10450;SDS011;5273;51.290;6.918;2022-11-25T11:17:46;6.22;;;2.45;;
10450;SDS011;5273;51.290;6.918;2022-11-25T11:20:15;5.75;;;2.42;;
10450;SDS011;5273;51.290;6.918;2022-11-25T11:22:46;4.93;;;1.90;;
10450;SDS011;5273;51.290;6.918;2022-11-25T11:25:24;5.75;;;2.30;;
10450;SDS011;5273;51.290;6.918;2022-11-25T11:27:56;4.68;;;1.92;;
10450;SDS011;5273;51.290;6.918;2022-11-25T11:30:24;6.45;;;2.20;;
10450;SDS011;5273;51.290;6.918;2022-11-25T11:33:00;5.30;;;2.10;;
10450;SDS011;5273;51.290;6.918;2022-11-25T11:35:40;6.65;;;2.10;;
10450;SDS011;5273;51.290;6.918;2022-11-25T11:38:21;8.63;;;2.00;;
10450;SDS011;5273;51.290;6.918;2022-11-25T11:40:59;5.55;;;2.33;;
10450;SDS011;5273;51.290;6.918;2022-11-25T11:43:40;5.05;;;2.00;;
10450;SDS011;5273;51.290;6.918;2022-11-25T11:46:24;7.88;;;2.17;;
10450;SDS011;5273;51.290;6.918;2022-11-25T11:49:00;6.70;;;2.10;;
10450;SDS011;5273;51.290;6.918;2022-11-25T11:51:35;7.63;;;2.20;;
10450;SDS011;5273;51.290;6.918;2022-11-25T11:54:09;6.63;;;1.90;;
10450;SDS011;5273;51.290;6.918;2022-11-25T11:56:43;4.93;;;2.08;;
10450;SDS011;5273;51.290;6.918;2022-11-25T11:59:25;7.90;;;2.13;;
10450;SDS011;5273;51.290;6.918;2022-11-25T12:02:14;7.18;;;2.42;;
10450;SDS011;5273;51.290;6.918;2022-11-25T12:04:50;5.88;;;2.45;;
10450;SDS011;5273;51.290;6.918;2022-11-25T12:07:21;6.47;;;1.95;;
10450;SDS011;5273;51.290;6.918;2022-11-25T12:09:56;7.43;;;2.13;;
10450;SDS011;5273;51.290;6.918;2022-11-25T12:12:31;10.23;;;2.30;;
10450;SDS011;5273;51.290;6.918;2022-11-25T12:15:02;12.40;;;2.70;;
10450;SDS011;5273;51.290;6.918;2022-11-25T12:17:35;7.75;;;2.10;;
10450;SDS011;5273;51.290;6.918;2022-11-25T12:20:12;5.05;;;1.80;;
10450;SDS011;5273;51.290;6.918;2022-11-25T12:22:43;3.97;;;1.88;;
10450;SDS011;5273;51.290;6.918;2022-11-25T12:25:16;4.18;;;1.73;;
10450;SDS011;5273;51.290;6.918;2022-11-25T12:27:48;11.25;;;2.40;;
10450;SDS011;5273;51.290;6.918;2022-11-25T12:30:20;4.68;;;1.88;;
10450;SDS011;5273;51.290;6.918;2022-11-25T12:32:52;5.57;;;2.40;;
10450;SDS011;5273;51.290;6.918;2022-11-25T12:35:38;6.85;;;2.10;;
10450;SDS011;5273;51.290;6.918;2022-11-25T12:41:03;4.43;;;2.00;;
10450;SDS011;5273;51.290;6.918;2022-11-25T12:43:40;5.43;;;1.98;;
10450;SDS011;5273;51.290;6.918;2022-11-25T12:46:14;10.30;;;3.00;;
10450;SDS011;5273;51.290;6.918;2022-11-25T12:48:47;5.60;;;2.15;;
10450;SDS011;5273;51.290;6.918;2022-11-25T12:51:19;6.78;;;2.25;;
10450;SDS011;5273;51.290;6.918;2022-11-25T12:53:57;8.40;;;2.05;;
10450;SDS011;5273;51.290;6.918;2022-11-25T12:56:35;4.35;;;2.00;;
10450;SDS011;5273;51.290;6.918;2022-11-25T12:59:21;3.90;;;1.92;;
10450;SDS011;5273;51.290;6.918;2022-11-25T13:02:14;5.55;;;1.88;;
10450;SDS011;5273;51.290;6.918;2022-11-25T13:05:07;5.97;;;2.22;;
10450;SDS011;5273;51.290;6.918;2022-11-25T13:07:50;6.25;;;1.85;;
10450;SDS011;5273;51.290;6.918;2022-11-25T13:10:28;6.22;;;1.92;;
10450;SDS011;5273;51.290;6.918;2022-11-25T13:13:12;4.20;;;1.83;;
10450;SDS011;5273;51.290;6.918;2022-11-25T13:15:54;4.03;;;1.58;;
10450;SDS011;5273;51.290;6.918;2022-11-25T13:18:24;7.82;;;2.08;;
10450;SDS011;5273;51.290;6.918;2022-11-25T13:20:54;7.07;;;2.00;;
10450;SDS011;5273;51.290;6.918;2022-11-25T13:23:25;7.93;;;2.05;;
10450;SDS011;5273;51.290;6.918;2022-11-25T13:32:36;6.93;;;1.80;;
10450;SDS011;5273;51.290;6.918;2022-11-25T13:38:35;6.38;;;1.90;;
10450;SDS011;5273;51.290;6.918;2022-11-25T13:44:01;7.68;;;2.05;;
10450;SDS011;5273;51.290;6.918;2022-11-25T13:46:33;11.65;;;2.63;;
10450;SDS011;5273;51.290;6.918;2022-11-25T13:49:06;6.88;;;1.92;;
10450;SDS011;5273;51.290;6.918;2022-11-25T13:51:48;6.18;;;2.45;;
10450;SDS011;5273;51.290;6.918;2022-11-25T13:54:16;3.42;;;1.73;;
10450;SDS011;5273;51.290;6.918;2022-11-25T13:56:56;5.82;;;2.65;;
10450;SDS011;5273;51.290;6.918;2022-11-25T13:59:33;5.50;;;2.10;;
10450;SDS011;5273;51.290;6.918;2022-11-25T14:05:27;4.20;;;1.75;;
10450;SDS011;5273;51.290;6.918;2022-11-25T14:08:17;7.05;;;2.03;;
10450;SDS011;5273;51.290;6.918;2022-11-25T14:10:59;5.97;;;2.28;;
10450;SDS011;5273;51.290;6.918;2022-11-25T14:13:53;6.32;;;1.88;;
10450;SDS011;5273;51.290;6.918;2022-11-25T14:19:21;6.18;;;2.20;;
10450;SDS011;5273;51.290;6.918;2022-11-25T14:22:25;9.60;;;2.25;;
10450;SDS011;5273;51.290;6.918;2022-11-25T14:25:12;6.90;;;2.13;;
10450;SDS011;5273;51.290;6.918;2022-11-25T14:27:43;5.90;;;1.90;;
10450;SDS011;5273;51.290;6.918;2022-11-25T14:30:12;4.28;;;1.75;;
10450;SDS011;5273;51.290;6.918;2022-11-25T14:32:41;5.25;;;1.90;;
10450;SDS011;5273;51.290;6.918;2022-11-25T14:35:13;6.70;;;1.80;;
10450;SDS011;5273;51.290;6.918;2022-11-25T14:37:46;8.23;;;1.80;;
10450;SDS011;5273;51.290;6.918;2022-11-25T14:40:17;5.28;;;1.52;;
10450;SDS011;5273;51.290;6.918;2022-11-25T14:42:47;5.47;;;2.05;;
10450;SDS011;5273;51.290;6.918;2022-11-25T14:45:21;3.78;;;1.90;;
10450;SDS011;5273;51.290;6.918;2022-11-25T14:47:50;3.50;;;1.50;;
10450;SDS011;5273;51.290;6.918;2022-11-25T14:50:17;7.63;;;2.20;;
10450;SDS011;5273;51.290;6.918;2022-11-25T14:52:45;9.82;;;1.90;;
10450;SDS011;5273;51.290;6.918;2022-11-25T14:55:12;7.23;;;2.27;;
10450;SDS011;5273;51.290;6.918;2022-11-25T14:57:48;5.45;;;1.65;;
10450;SDS011;5273;51.290;6.918;2022-11-25T15:00:17;7.55;;;1.80;;
10450;SDS011;5273;51.290;6.918;2022-11-25T15:02:51;4.90;;;1.65;;
10450;SDS011;5273;51.290;6.918;2022-11-25T15:05:20;6.13;;;1.70;;
10450;SDS011;5273;51.290;6.918;2022-11-25T15:07:58;7.47;;;2.30;;
10450;SDS011;5273;51.290;6.918;2022-11-25T15:10:27;6.68;;;1.88;;
10450;SDS011;5273;51.290;6.918;2022-11-25T15:12:59;5.78;;;1.95;;
10450;SDS011;5273;51.290;6.918;2022-11-25T15:15:34;8.23;;;2.17;;
10450;SDS011;5273;51.290;6.918;2022-11-25T15:18:03;6.88;;;2.03;;
10450;SDS011;5273;51.290;6.918;2022-11-25T15:20:30;9.45;;;2.10;;
10450;SDS011;5273;51.290;6.918;2022-11-25T15:23:00;7.45;;;1.67;;
10450;SDS011;5273;51.290;6.918;2022-11-25T15:25:27;5.90;;;2.20;;
10450;SDS011;5273;51.290;6.918;2022-11-25T15:27:54;6.22;;;2.08;;
10450;SDS011;5273;51.290;6.918;2022-11-25T15:30:22;5.47;;;2.03;;
10450;SDS011;5273;51.290;6.918;2022-11-25T15:32:51;4.32;;;2.10;;
10450;SDS011;5273;51.290;6.918;2022-11-25T15:35:20;5.95;;;2.05;;
10450;SDS011;5273;51.290;6.918;2022-11-25T15:37:48;4.78;;;1.80;;
10450;SDS011;5273;51.290;6.918;2022-11-25T15:40:29;6.07;;;2.05;;